createdAt,value
2019-03-03T00:03:31.680Z,11.40
2019-03-03T00:08:33.764Z,11.61
2019-03-03T00:13:35.858Z,11.61
2019-03-03T00:18:38.123Z,12.00
2019-03-03T00:23:40.207Z,11.68
2019-03-03T00:28:42.254Z,12.44
2019-03-03T00:33:44.328Z,12.44
2019-03-03T00:38:57.853Z,12.39
2019-03-03T00:44:32.694Z,12.39
2019-03-03T00:49:46.206Z,12.46
2019-03-03T00:54:58.225Z,12.49
2019-03-03T01:00:16.805Z,11.63
2019-03-03T01:05:38.156Z,12.39
2019-03-03T01:10:55.307Z,12.39
2019-03-03T01:16:08.994Z,12.56
2019-03-03T01:21:23.901Z,12.29
2019-03-03T01:26:26.140Z,12.29
2019-03-03T01:31:30.344Z,12.03
2019-03-03T01:36:32.552Z,12.52
2019-03-03T01:41:34.965Z,12.38
2019-03-03T01:46:37.140Z,11.69
2019-03-03T01:51:42.297Z,12.21
2019-03-03T01:56:44.429Z,12.21
2019-03-03T02:01:49.514Z,12.06
2019-03-03T02:06:52.105Z,12.03
2019-03-03T02:11:54.170Z,12.44
2019-03-03T02:16:56.351Z,11.99
2019-03-03T02:21:58.790Z,11.30
2019-03-03T02:27:00.930Z,11.07
2019-03-03T02:32:06.133Z,11.54
2019-03-03T02:37:08.272Z,11.06
2019-03-03T02:42:12.672Z,11.19
2019-03-03T02:47:15.272Z,11.17
2019-03-03T02:52:17.703Z,11.10
2019-03-03T02:57:26.897Z,11.33
2019-03-03T03:02:50.153Z,11.37
2019-03-03T03:08:00.360Z,11.39
2019-03-03T03:13:21.985Z,11.39
2019-03-03T03:18:44.984Z,11.51
2019-03-03T03:24:00.097Z,11.43
2019-03-03T03:29:12.722Z,11.49
2019-03-03T03:34:23.202Z,11.40
2019-03-03T03:39:43.720Z,11.39
2019-03-03T03:45:17.495Z,11.35
2019-03-03T03:50:28.324Z,11.50
2019-03-03T03:55:47.804Z,11.24
2019-03-03T04:01:19.772Z,10.92
2019-03-03T04:06:40.005Z,10.69
2019-03-03T04:11:48.674Z,10.85
2019-03-03T04:17:10.333Z,11.06
2019-03-03T04:22:37.834Z,10.81
2019-03-03T04:28:05.596Z,10.92
2019-03-03T04:33:22.231Z,10.63
2019-03-03T04:38:50.779Z,10.87
2019-03-03T04:44:01.679Z,10.66
2019-03-03T04:49:19.710Z,10.37
2019-03-03T04:54:42.166Z,10.58
2019-03-03T05:00:22.166Z,10.52
2019-03-03T05:05:34.377Z,10.61
2019-03-03T05:10:53.054Z,10.55
2019-03-03T05:16:20.767Z,10.70
2019-03-03T05:21:22.826Z,10.50
2019-03-03T05:26:28.567Z,10.77
2019-03-03T05:31:30.592Z,10.53
2019-03-03T05:36:32.750Z,10.74
2019-03-03T05:41:34.873Z,10.52
2019-03-03T05:46:36.970Z,10.39
2019-03-03T05:51:43.235Z,10.67
2019-03-03T05:56:45.504Z,10.52
2019-03-03T06:01:47.597Z,10.89
2019-03-03T06:06:49.804Z,10.53
2019-03-03T06:11:51.911Z,10.62
2019-03-03T06:16:56.806Z,10.84
2019-03-03T06:21:58.908Z,10.58
2019-03-03T06:27:01.129Z,10.61
2019-03-03T06:32:05.758Z,10.68
2019-03-03T06:37:07.877Z,10.69
2019-03-03T06:42:12.456Z,10.78
2019-03-03T06:47:17.152Z,10.90
2019-03-03T06:52:23.209Z,10.88
2019-03-03T06:57:28.051Z,10.82
2019-03-03T07:02:32.839Z,10.85
2019-03-03T07:07:37.619Z,10.78
2019-03-03T07:12:42.669Z,10.76
2019-03-03T07:17:45.786Z,10.70
2019-03-03T07:22:47.877Z,10.78
2019-03-03T07:27:50.050Z,10.82
2019-03-03T07:33:11.705Z,10.80
2019-03-03T07:38:16.902Z,10.86
2019-03-03T07:43:19.026Z,10.93
2019-03-03T07:48:21.324Z,10.96
2019-03-03T07:53:23.405Z,11.02
2019-03-03T07:58:28.179Z,10.83
2019-03-03T08:03:30.210Z,10.87
2019-03-03T08:08:32.357Z,11.18
2019-03-03T08:13:34.484Z,11.02
2019-03-03T08:18:36.594Z,11.21
2019-03-03T08:23:38.686Z,10.98
2019-03-03T08:28:44.446Z,11.17
2019-03-03T08:33:46.529Z,11.01
2019-03-03T08:38:48.813Z,11.15
2019-03-03T08:44:01.304Z,11.23
2019-03-03T08:49:24.445Z,11.39
2019-03-03T08:54:41.045Z,11.39
2019-03-03T09:00:05.011Z,11.19
2019-03-03T09:05:25.512Z,11.39
2019-03-03T09:10:50.186Z,11.32
2019-03-03T09:16:10.548Z,11.41
2019-03-03T09:21:19.733Z,11.45
2019-03-03T09:26:44.505Z,11.45
2019-03-03T09:32:24.457Z,11.46
2019-03-03T09:37:48.884Z,11.38
2019-03-03T09:43:05.894Z,11.66
2019-03-03T09:48:15.259Z,11.66
2019-03-03T09:53:40.543Z,11.50
2019-03-03T09:59:00.733Z,11.63
2019-03-03T10:04:18.526Z,11.71
2019-03-03T10:09:45.484Z,12.04
2019-03-03T10:15:26.505Z,11.84
2019-03-03T10:20:39.861Z,11.98
2019-03-03T10:25:49.952Z,12.03
2019-03-03T10:31:10.094Z,12.08
2019-03-03T10:36:33.467Z,12.23
2019-03-03T10:42:00.773Z,12.06
2019-03-03T10:47:17.294Z,12.25
2019-03-03T10:52:33.314Z,12.35
2019-03-03T10:57:51.084Z,12.27
2019-03-03T11:03:11.757Z,12.27
2019-03-03T11:08:42.627Z,12.30
2019-03-03T11:13:59.951Z,12.35
2019-03-03T11:19:17.615Z,12.64
2019-03-03T11:24:46.357Z,12.64
2019-03-03T11:29:59.760Z,12.75
2019-03-03T11:35:27.577Z,12.75
2019-03-03T11:40:45.433Z,12.57
2019-03-03T11:46:11.387Z,12.57
2019-03-03T11:51:34.292Z,12.79
2019-03-03T11:56:56.948Z,12.51
2019-03-03T12:02:20.937Z,12.51
2019-03-03T12:07:46.279Z,12.62
2019-03-03T12:13:07.948Z,12.77
2019-03-03T12:18:29.975Z,12.77
2019-03-03T12:24:05.201Z,12.42
2019-03-03T12:29:26.945Z,12.42
2019-03-03T12:34:54.743Z,12.61
2019-03-03T12:40:08.102Z,12.68
2019-03-03T12:45:24.486Z,12.45
2019-03-03T12:50:44.943Z,12.62
2019-03-03T12:56:09.619Z,12.59
2019-03-03T13:01:34.933Z,12.57
2019-03-03T13:07:13.781Z,12.57
2019-03-03T13:12:37.428Z,12.60
2019-03-03T13:18:12.989Z,12.18
2019-03-03T13:23:34.577Z,12.18
2019-03-03T13:28:50.092Z,12.25
2019-03-03T13:34:14.777Z,12.25
2019-03-03T13:39:31.101Z,12.50
2019-03-03T13:44:36.152Z,12.22
2019-03-03T13:49:49.329Z,12.22
2019-03-03T13:54:53.839Z,12.59
2019-03-03T13:59:55.877Z,12.77
2019-03-03T14:04:58.011Z,12.81
2019-03-03T14:10:01.722Z,12.81
2019-03-03T14:15:06.007Z,12.80
2019-03-03T14:20:15.273Z,12.68
2019-03-03T14:25:17.610Z,12.61
2019-03-03T14:30:23.447Z,12.61
2019-03-03T14:35:25.564Z,12.61
2019-03-03T14:40:27.698Z,12.57
2019-03-03T14:45:29.777Z,12.90
2019-03-03T14:50:31.850Z,12.68
2019-03-03T14:55:34.057Z,12.74
2019-03-03T15:00:36.131Z,12.70
2019-03-03T15:05:38.374Z,12.68
2019-03-03T15:10:41.012Z,12.57
2019-03-03T15:15:44.968Z,12.51
2019-03-03T15:20:47.112Z,12.57
2019-03-03T15:25:52.935Z,12.58
2019-03-03T15:30:55.076Z,12.67
2019-03-03T15:35:57.416Z,12.67
2019-03-03T15:41:00.449Z,12.68
2019-03-03T15:46:02.816Z,12.38
2019-03-03T15:51:06.008Z,12.15
2019-03-03T15:56:08.278Z,12.15
2019-03-03T16:01:21.154Z,12.34
2019-03-03T16:06:30.529Z,12.37
2019-03-03T16:11:32.655Z,12.25
2019-03-03T16:16:36.617Z,12.57
2019-03-03T16:21:42.847Z,12.64
2019-03-03T16:26:46.667Z,12.46
2019-03-03T16:31:48.749Z,12.77
2019-03-03T16:36:53.646Z,12.89
2019-03-03T16:41:59.633Z,12.61
2019-03-03T16:47:02.980Z,12.66
2019-03-03T16:52:05.153Z,12.66
2019-03-03T16:57:10.245Z,12.65
2019-03-03T17:02:12.353Z,12.58
2019-03-03T17:07:15.923Z,12.58
2019-03-03T17:12:20.344Z,12.64
2019-03-03T17:17:24.654Z,12.43
2019-03-03T17:22:30.140Z,12.57
2019-03-03T17:27:32.262Z,12.43
2019-03-03T17:32:38.978Z,12.64
2019-03-03T17:37:41.118Z,12.60
2019-03-03T17:42:43.515Z,12.60
2019-03-03T17:47:45.653Z,12.71
2019-03-03T17:52:47.843Z,12.65
2019-03-03T17:57:53.164Z,12.52
2019-03-03T18:02:56.437Z,12.66
2019-03-03T18:07:59.138Z,12.66
2019-03-03T18:13:01.255Z,12.48
2019-03-03T18:18:03.525Z,12.72
2019-03-03T18:23:08.502Z,12.68
2019-03-03T18:28:10.856Z,12.68
2019-03-03T18:33:13.034Z,12.50
2019-03-03T18:38:18.196Z,12.42
2019-03-03T18:43:20.283Z,12.50
2019-03-03T18:48:22.597Z,12.37
2019-03-03T18:53:24.688Z,12.49
2019-03-03T18:58:36.616Z,12.41
2019-03-03T19:03:38.645Z,12.41
2019-03-03T19:08:43.729Z,12.51
2019-03-03T19:13:49.159Z,12.60
2019-03-03T19:18:52.325Z,12.47
2019-03-03T19:23:54.712Z,12.59
2019-03-03T19:28:58.017Z,12.36
2019-03-03T19:34:05.030Z,12.62
2019-03-03T19:39:07.513Z,12.55
2019-03-03T19:44:11.227Z,12.59
2019-03-03T19:49:15.907Z,12.56
2019-03-03T19:54:17.993Z,12.41
2019-03-03T19:59:21.952Z,12.64
2019-03-03T20:04:24.313Z,12.64
2019-03-03T20:09:26.586Z,12.51
2019-03-03T20:14:31.758Z,12.51
2019-03-03T20:19:36.574Z,12.56
2019-03-03T20:24:41.044Z,12.68
2019-03-03T20:29:45.954Z,12.63
2019-03-03T20:34:48.117Z,12.34
2019-03-03T20:39:50.412Z,12.34
2019-03-03T20:44:52.677Z,12.36
2019-03-03T20:49:55.062Z,12.16
2019-03-03T20:54:58.983Z,12.65
2019-03-03T21:00:01.099Z,12.65
2019-03-03T21:05:04.105Z,12.84
2019-03-03T21:10:07.004Z,12.80
2019-03-03T21:15:09.389Z,12.80
2019-03-03T21:20:14.762Z,12.61
2019-03-03T21:25:19.691Z,12.67
2019-03-03T21:30:22.325Z,12.66
2019-03-03T21:35:24.531Z,12.55
2019-03-03T21:40:26.712Z,12.78
2019-03-03T21:45:29.215Z,12.82
2019-03-03T21:50:34.471Z,12.77
2019-03-03T21:55:40.002Z,12.89
2019-03-03T22:00:45.614Z,12.81
2019-03-03T22:05:49.115Z,12.81
2019-03-03T22:10:51.478Z,12.97
2019-03-03T22:15:54.944Z,12.86
2019-03-03T22:21:00.079Z,12.98
2019-03-03T22:26:05.030Z,12.84
2019-03-03T22:31:08.715Z,13.04
2019-03-03T22:36:13.309Z,13.10
2019-03-03T22:41:15.470Z,13.10
2019-03-03T22:46:20.393Z,13.07
2019-03-03T22:51:22.440Z,13.07
2019-03-03T22:56:24.781Z,12.95
2019-03-03T23:01:33.858Z,13.09
2019-03-03T23:06:46.335Z,13.09
2019-03-03T23:12:16.996Z,12.97
2019-03-03T23:18:09.828Z,13.17
2019-03-03T23:23:55.304Z,13.04
2019-03-03T23:28:59.679Z,13.05
2019-03-03T23:34:01.840Z,13.08
2019-03-03T23:39:07.615Z,13.27
2019-03-03T23:44:09.650Z,13.20
2019-03-03T23:49:13.755Z,13.24
2019-03-03T23:54:18.244Z,13.16
2019-03-03T23:59:22.739Z,12.91
